Terminal Aerodrome Forecast
Issued by NWS

Home | Current Version | Previous Version | Graphics & Text | Print | Product List | Glossary On
Versions: 1 2 3 4 5 6 7 8 9 10 11 12 13 14 15 16 17 18 19
000
FTUS43 KGRB 220520
TAFAUW
TAF
KAUW 220520Z 2206/2306 00000KT P6SM BKN250
     FM221000 09004KT P6SM OVC090
     FM222000 10006KT P6SM OVC050
     FM230100 10007KT P6SM OVC050 WS020/13035KT
     FM230400 12008KT 5SM -SN OVC024 WS020/13045KT=

USA.gov is the U.S. government's official web portal to all federal, state and local government web resources and services.